createdAt,value
2022-09-12T00:04:42.160Z,100.00
2022-09-12T00:09:43.828Z,100.00
2022-09-12T00:14:45.502Z,100.00
2022-09-12T00:19:47.992Z,100.00
2022-09-12T00:24:49.766Z,100.00
2022-09-12T00:29:51.846Z,100.00
2022-09-12T00:34:53.628Z,100.00
2022-09-12T00:39:55.739Z,100.00
2022-09-12T00:44:57.690Z,100.00
2022-09-12T00:50:19.635Z,100.00
2022-09-12T00:55:21.405Z,100.00
2022-09-12T01:00:26.928Z,100.00
2022-09-12T01:05:30.896Z,100.00
2022-09-12T01:10:37.375Z,100.00
2022-09-12T01:15:40.317Z,100.00
2022-09-12T01:21:03.351Z,100.00
2022-09-12T01:26:27.037Z,100.00
2022-09-12T01:31:40.689Z,100.00
2022-09-12T01:36:54.752Z,100.00
2022-09-12T01:42:02.670Z,100.00
2022-09-12T01:47:19.295Z,100.00
2022-09-12T01:52:28.339Z,100.00
2022-09-12T01:57:42.809Z,100.00
2022-09-12T02:02:55.132Z,100.00
2022-09-12T02:08:30.697Z,100.00
2022-09-12T02:13:42.821Z,100.00
2022-09-12T02:18:50.532Z,100.00
2022-09-12T02:23:59.063Z,100.00
2022-09-12T02:29:01.347Z,100.00
2022-09-12T02:34:52.069Z,100.00
2022-09-12T02:39:56.874Z,100.00
2022-09-12T02:44:58.895Z,100.00
2022-09-12T02:50:01.486Z,100.00
2022-09-12T02:55:06.032Z,100.00
2022-09-12T03:00:09.017Z,100.00
2022-09-12T03:05:30.259Z,100.00
2022-09-12T03:10:50.567Z,100.00
2022-09-12T03:16:04.485Z,100.00
2022-09-12T03:21:33.132Z,100.00
2022-09-12T03:26:39.309Z,100.00
2022-09-12T03:31:49.827Z,100.00
2022-09-12T03:36:54.978Z,100.00
2022-09-12T03:41:57.737Z,100.00
2022-09-12T03:46:59.718Z,100.00
2022-09-12T03:52:01.902Z,100.00
2022-09-12T03:57:04.084Z,100.00
2022-09-12T04:02:06.518Z,100.00
2022-09-12T04:07:09.887Z,100.00
2022-09-12T04:12:13.504Z,100.00
2022-09-12T04:17:15.790Z,100.00
2022-09-12T04:22:17.564Z,100.00
2022-09-12T04:27:19.748Z,100.00
2022-09-12T04:32:22.038Z,100.00
2022-09-12T04:37:24.225Z,100.00
2022-09-12T04:42:26.304Z,100.00
2022-09-12T04:47:28.387Z,100.00
2022-09-12T04:52:30.462Z,100.00
2022-09-12T04:57:32.236Z,100.00
2022-09-12T05:02:34.486Z,100.00
2022-09-12T05:07:36.400Z,100.00
2022-09-12T05:12:38.789Z,100.00
2022-09-12T05:17:40.563Z,100.00
2022-09-12T05:22:42.546Z,100.00
2022-09-12T05:27:47.440Z,100.00
2022-09-12T05:32:52.233Z,100.00
2022-09-12T05:37:54.007Z,100.00
2022-09-12T05:42:57.215Z,100.00
2022-09-12T05:47:59.195Z,100.00
2022-09-12T05:53:01.379Z,100.00
2022-09-12T05:58:03.257Z,100.00
2022-09-12T06:03:04.928Z,100.00
2022-09-12T06:08:06.701Z,100.00
2022-09-12T06:13:08.476Z,100.00
2022-09-12T06:18:10.249Z,100.00
2022-09-12T06:23:12.330Z,100.00
2022-09-12T06:28:14.514Z,100.00
2022-09-12T06:33:17.214Z,100.00
2022-09-12T06:38:19.395Z,99.97
2022-09-12T06:43:21.479Z,99.56
2022-09-12T06:48:23.661Z,98.55
2022-09-12T06:53:26.971Z,97.09
2022-09-12T06:58:30.180Z,96.08
2022-09-12T07:03:33.251Z,94.57
2022-09-12T07:08:37.009Z,93.20
2022-09-12T07:13:40.929Z,89.89
2022-09-12T07:18:43.630Z,88.71
2022-09-12T07:23:46.949Z,87.93
2022-09-12T07:29:07.954Z,85.99
2022-09-12T07:34:14.957Z,85.13
2022-09-12T07:39:19.776Z,80.73
2022-09-12T07:44:22.504Z,79.31
2022-09-12T07:49:24.274Z,78.33
2022-09-12T07:54:26.353Z,77.80
2022-09-12T07:59:48.879Z,77.39
2022-09-12T08:04:50.938Z,77.94
2022-09-12T08:09:53.386Z,78.13
2022-09-12T08:14:55.160Z,77.05
2022-09-12T08:19:56.989Z,77.62
2022-09-12T08:24:58.814Z,76.83
2022-09-12T08:30:00.585Z,77.09
2022-09-12T08:35:03.280Z,77.70
2022-09-12T08:40:08.918Z,77.24
2022-09-12T08:45:10.723Z,75.44
2022-09-12T08:50:17.278Z,75.20
2022-09-12T08:55:25.130Z,74.77
2022-09-12T09:00:42.566Z,75.85
2022-09-12T09:06:02.602Z,75.43
2022-09-12T09:11:25.966Z,75.48
2022-09-12T09:16:32.613Z,74.67
2022-09-12T09:21:40.659Z,72.87
2022-09-12T09:26:45.709Z,72.07
2022-09-12T09:31:52.874Z,65.84
2022-09-12T09:37:18.952Z,57.76
2022-09-12T09:42:44.073Z,55.28
2022-09-12T09:47:52.812Z,54.72
2022-09-12T09:52:58.893Z,57.29
2022-09-12T09:58:00.664Z,57.86
2022-09-12T10:03:38.481Z,57.98
2022-09-12T10:08:41.179Z,57.96
2022-09-12T10:13:56.571Z,58.14
2022-09-12T10:19:03.570Z,58.43
2022-09-12T10:24:14.459Z,58.46
2022-09-12T10:29:25.663Z,59.13
2022-09-12T10:34:35.923Z,59.94
2022-09-12T10:39:38.627Z,60.54
2022-09-12T10:44:54.056Z,60.81
2022-09-12T10:50:22.870Z,59.34
2022-09-12T10:55:35.457Z,59.98
2022-09-12T11:00:47.059Z,61.11
2022-09-12T11:05:52.263Z,61.65
2022-09-12T11:10:59.918Z,60.05
2022-09-12T11:16:10.857Z,60.43
2022-09-12T11:21:46.581Z,60.84
2022-09-12T11:27:00.659Z,59.52
2022-09-12T11:32:18.085Z,59.92
2022-09-12T11:37:51.191Z,61.34
2022-09-12T11:42:55.439Z,58.67
2022-09-12T11:48:03.966Z,57.28
2022-09-12T11:53:20.275Z,57.63
2022-09-12T11:58:26.563Z,58.60
2022-09-12T12:03:37.907Z,58.93
2022-09-12T12:08:43.006Z,60.05
2022-09-12T12:13:55.442Z,60.65
2022-09-12T12:19:02.117Z,60.40
2022-09-12T12:24:07.752Z,60.26
2022-09-12T12:29:21.747Z,59.11
2022-09-12T12:34:44.203Z,60.34
2022-09-12T12:39:50.464Z,61.71
2022-09-12T12:44:52.664Z,62.24
2022-09-12T12:50:01.407Z,62.69
2022-09-12T12:55:05.532Z,60.79
2022-09-12T13:00:27.786Z,60.31
2022-09-12T13:05:46.670Z,58.46
2022-09-12T13:10:57.449Z,59.32
2022-09-12T13:15:59.373Z,60.15
2022-09-12T13:21:19.428Z,60.54
2022-09-12T13:26:27.962Z,62.08
2022-09-12T13:31:30.199Z,63.06
2022-09-12T13:36:55.997Z,63.03
2022-09-12T13:42:47.421Z,61.12
2022-09-12T13:47:58.739Z,58.94
2022-09-12T13:53:07.623Z,57.33
2022-09-12T13:58:21.234Z,57.21
2022-09-12T14:03:45.943Z,56.42
2022-09-12T14:08:48.383Z,57.17
2022-09-12T14:13:52.239Z,57.43
2022-09-12T14:18:54.523Z,58.29
2022-09-12T14:23:57.325Z,59.08
2022-09-12T14:29:01.245Z,59.89
2022-09-12T14:34:15.213Z,60.64
2022-09-12T14:39:21.483Z,60.82
2022-09-12T14:44:26.125Z,59.90
2022-09-12T14:49:29.353Z,59.50
2022-09-12T14:54:38.589Z,60.02
2022-09-12T14:59:41.588Z,60.70
2022-09-12T15:04:54.903Z,61.34
2022-09-12T15:10:02.295Z,60.86
2022-09-12T15:15:14.882Z,59.66
2022-09-12T15:20:17.252Z,59.74
2022-09-12T15:25:20.152Z,60.76
2022-09-12T15:30:22.030Z,61.54
2022-09-12T15:35:33.329Z,61.87
2022-09-12T15:40:35.409Z,62.74
2022-09-12T15:45:39.230Z,63.00
2022-09-12T15:50:41.931Z,63.63
2022-09-12T15:55:44.723Z,64.28
2022-09-12T16:00:47.301Z,64.64
2022-09-12T16:05:50.618Z,65.40
2022-09-12T16:10:59.180Z,66.22
2022-09-12T16:16:01.809Z,66.97
2022-09-12T16:21:04.363Z,67.69
2022-09-12T16:26:06.847Z,68.55
2022-09-12T16:31:12.785Z,69.31
2022-09-12T16:36:17.757Z,69.98
2022-09-12T16:41:24.416Z,70.68
2022-09-12T16:46:28.547Z,71.25
2022-09-12T16:51:33.425Z,72.09
2022-09-12T16:56:35.202Z,72.72
2022-09-12T17:01:38.172Z,73.51
2022-09-12T17:06:41.411Z,74.26
2022-09-12T17:11:44.894Z,75.23
2022-09-12T17:16:51.457Z,76.01
2022-09-12T17:21:54.123Z,76.88
2022-09-12T17:26:56.917Z,77.64
2022-09-12T17:31:59.278Z,78.73
2022-09-12T17:37:02.011Z,79.71
2022-09-12T17:42:05.369Z,80.53
2022-09-12T17:47:07.895Z,81.47
2022-09-12T17:52:10.494Z,82.53
2022-09-12T17:57:14.005Z,83.74
2022-09-12T18:02:18.899Z,84.45
2022-09-12T18:07:21.964Z,85.28
2022-09-12T18:12:28.721Z,86.23
2022-09-12T18:17:32.993Z,87.17
2022-09-12T18:22:35.317Z,88.48
2022-09-12T18:27:37.655Z,89.37
2022-09-12T18:32:41.327Z,90.20
2022-09-12T18:37:44.694Z,90.54
2022-09-12T18:42:52.718Z,91.04
2022-09-12T18:48:00.740Z,91.19
2022-09-12T18:53:03.129Z,91.31
2022-09-12T18:58:05.724Z,91.54
2022-09-12T19:03:10.038Z,91.97
2022-09-12T19:08:12.120Z,92.65
2022-09-12T19:13:14.325Z,92.68
2022-09-12T19:18:19.775Z,93.48
2022-09-12T19:23:24.053Z,93.83
2022-09-12T19:28:28.126Z,94.07
2022-09-12T19:33:30.313Z,94.69
2022-09-12T19:38:32.702Z,94.95
2022-09-12T19:43:34.687Z,95.35
2022-09-12T19:48:36.865Z,95.41
2022-09-12T19:53:39.360Z,95.52
2022-09-12T19:58:44.310Z,96.05
2022-09-12T20:03:48.620Z,96.73
2022-09-12T20:08:51.346Z,97.07
2022-09-12T20:13:54.031Z,97.48
2022-09-12T20:19:08.713Z,97.41
2022-09-12T20:24:13.482Z,98.00
2022-09-12T20:29:17.999Z,98.28
2022-09-12T20:34:21.095Z,98.26
2022-09-12T20:39:23.286Z,98.50
2022-09-12T20:44:25.772Z,98.81
2022-09-12T20:49:28.058Z,98.55
2022-09-12T20:54:31.782Z,98.95
2022-09-12T20:59:34.794Z,99.18
2022-09-12T21:04:36.684Z,99.47
2022-09-12T21:09:39.341Z,99.39
2022-09-12T21:14:41.131Z,99.16
2022-09-12T21:19:43.001Z,99.70
2022-09-12T21:24:44.877Z,99.95
2022-09-12T21:29:46.652Z,100.00
2022-09-12T21:34:48.939Z,100.00
2022-09-12T21:39:50.742Z,100.00
2022-09-12T21:44:53.044Z,100.00
2022-09-12T21:49:55.083Z,100.00
2022-09-12T21:54:57.058Z,100.00
2022-09-12T21:59:59.343Z,100.00
2022-09-12T22:05:01.427Z,100.00
2022-09-12T22:10:05.045Z,100.00
2022-09-12T22:15:29.221Z,100.00
2022-09-12T22:20:29.385Z,100.00
2022-09-12T22:25:31.154Z,100.00
2022-09-12T22:30:33.747Z,100.00
2022-09-12T22:35:36.033Z,100.00
2022-09-12T22:40:38.015Z,100.00
2022-09-12T22:45:42.865Z,100.00
2022-09-12T22:50:45.564Z,100.00
2022-09-12T22:55:47.637Z,100.00
2022-09-12T23:00:50.208Z,100.00
2022-09-12T23:05:53.541Z,100.00
2022-09-12T23:11:09.038Z,100.00
2022-09-12T23:16:24.792Z,100.00
2022-09-12T23:21:26.920Z,100.00
2022-09-12T23:26:29.513Z,100.00
2022-09-12T23:31:32.777Z,100.00
2022-09-12T23:36:34.803Z,100.00
2022-09-12T23:41:37.713Z,100.00
2022-09-12T23:46:40.092Z,100.00
2022-09-12T23:51:41.866Z,100.00
2022-09-12T23:56:43.640Z,100.00
